Terminal Aerodrome Forecast
Issued by NWS

Home | Current Version | Previous Version | Text Only | Print | Product List | Glossary On
Versions: 1 2 3 4 5 6 7 8 9 10 11 12 13 14 15 16
000
FTUS45 KABQ 261300 AAA
TAFTCC
TAF AMD
KTCC 261322Z 2613/2712 05009G16KT 5SM -SN OVC012
      TEMPO 2614/2618 1SM -SN BR OVC006
     FM261800 06008KT 5SM -SN BR OVC012
      TEMPO 2618/2622 1 1/2SM -SN BR OVC007
     FM270300 VRB05KT P6SM VCFG OVC020=

USA.gov is the U.S. government's official web portal to all federal, state and local government web resources and services.